LTFE/BJV METAR and TAF weather

Enter ICAO airport designator
Station Type Date Time Source
LTFE METAR 2021/04/13 07:50 UTC NOAA

LTFE 130750Z VRB02KT CAVOK 19/06 Q1020 NOSIG


Station Type Date Time Source
LTFE Decoded METAR 2021/04/13 07:50 UTC NOAA

Bodrum Milas Airport, Turkey (LTFE) 37-14-53N 027-40-55E
Apr 13, 2021 - 03:50 AM EDT / 2021.04.13 0750 UTC
Wind: Variable at 2 MPH (2 KT):0
Visibility: greater than 7 mile(s):0
Temperature: 66 F (19 C)
Dew Point: 42 F (6 C)
Relative Humidity: 42%
Pressure (altimeter): 30.12 in. Hg (1020 hPa)
ob: LTFE 130750Z VRB02KT CAVOK 19/06 Q1020 NOSIG
cycle: 8

Station Type Date Time Source
LTFE TAF 2021/04/13 06:03 UTC NOAA

TAF LTFE 130440Z 1306/1406 VRB02KT CAVOK
BECMG 1308/1310 26012KT FEW035 SCT100
BECMG 1314/1316 VRB02KT CAVOK
BECMG 1403/1406 FEW035

Example: see airport list